Date,TemperatureHighF,TemperatureAvgF,TemperatureLowF,DewpointHighF,DewpointAvgF,DewpointLowF,HumidityHigh,HumidityAvg,HumidityLow,PressureMaxIn,PressureMinIn,WindSpeedMaxMPH,WindSpeedAvgMPH,GustSpeedMaxMPH,PrecipitationSumIn
2013-1-1,29,22,10,8,3,-8,44,43,41,29.83,29.56,10,2,15,0.00
2013-1-2,18,10,1,0,-8,-16,44,44,43,29.98,29.77,7,2,12,0.00
2013-1-3,17,8,0,-1,-9,-17,44,44,44,30.03,29.92,6,2,11,0.00
2013-1-4,30,20,6,9,0,-12,44,42,41,29.92,29.68,6,0,8,0.00
2013-1-5,32,25,14,10,5,-4,44,42,40,30.27,29.68,10,2,15,0.00
2013-1-6,31,24,13,10,4,-5,44,42,41,30.21,29.92,3,0,5,0.00
2013-1-7,28,21,13,8,2,-5,44,43,42,30.39,29.92,6,1,8,0.00
2013-1-8,38,30,19,15,9,0,43,41,39,30.33,30.15,6,1,8,0.00
2013-1-9,38,27,19,15,7,1,44,42,39,30.39,30.15,4,0,6,0.00
2013-1-17,70,50,14,40,26,-4,44,39,34,30.12,29.80,8,1,10,0.00
2013-1-18,13,9,5,-5,-8,-12,44,44,44,30.39,30.07,0,0,0,0.04
2013-1-19,34,32,29,19,16,11,59,51,45,30.12,29.89,4,1,6,0.04
2013-1-20,47,37,23,31,18,3,71,47,37,29.86,29.44,7,2,12,0.00
2013-1-21,23,18,12,2,0,-6,44,43,42,30.03,29.80,8,2,17,0.00
2013-1-22,19,12,6,0,-6,-11,44,44,44,29.98,29.71,13,2,13,0.00
2013-1-23,7,2,-2,-11,-15,-19,44,44,44,30.07,29.95,8,4,14,0.00
2013-1-24,13,7,0,-5,-11,-16,44,44,44,30.03,29.89,8,4,14,0.00
2013-1-25,18,9,0,0,-9,-17,44,44,43,30.15,30.03,8,2,8,0.00
2013-1-26,19,13,6,0,-5,-11,44,44,43,30.07,29.95,9,2,12,0.00
2013-1-27,21,13,6,2,-5,-11,44,44,42,30.36,30.07,8,3,13,0.00
2013-1-28,30,18,6,9,-1,-11,44,43,41,30.39,30.07,5,1,6,0.00
2013-1-29,34,21,13,13,2,-4,45,44,42,30.18,30.03,3,0,5,0.00
2013-1-31,54,53,52,51,50,49,89,89,89,29.06,29.00,15,11,30,0.04
2013-3-28,52,44,33,26,20,12,60,39,36,29.95,29.89,5,1,6,0.00
2013-3-29,63,46,35,34,22,13,42,38,34,29.98,29.92,6,2,8,0.00
2013-4-9,45,42,39,34,31,22,76,64,46,30.03,29.89,0,0,0,0.04
2013-4-10,39,39,39,32,32,32,77,76,76,29.98,29.92,0,0,0,0.04